createdAt,value
2023-03-01T21:48:14.906Z,101648.00
2023-03-01T21:50:41.545Z,101644.00
2023-03-01T21:53:08.243Z,101638.00
2023-03-01T21:55:34.991Z,101647.00
2023-03-01T21:58:01.560Z,101647.00
2023-03-01T22:00:28.361Z,101639.00
2023-03-01T22:02:58.024Z,101640.00
2023-03-01T22:05:24.870Z,101636.00
2023-03-01T22:07:51.498Z,101644.00
2023-03-01T22:10:26.822Z,101642.00
2023-03-01T22:12:54.531Z,101638.00
2023-03-01T22:15:21.153Z,101639.00
2023-03-01T22:17:47.785Z,101644.00
2023-03-01T22:20:14.928Z,101638.00
2023-03-01T22:22:42.357Z,101641.00
2023-03-01T22:25:10.980Z,101630.00
2023-03-01T22:27:38.133Z,101627.00
2023-03-01T22:30:06.610Z,101628.00
2023-03-01T22:32:33.303Z,101634.00
2023-03-01T22:35:00.172Z,101620.00
2023-03-01T22:37:26.891Z,101627.00
2023-03-01T22:39:53.908Z,101630.00
2023-03-01T22:42:20.535Z,101635.00
2023-03-01T22:44:47.144Z,101628.00
2023-03-01T22:47:14.151Z,101628.00
2023-03-01T22:49:41.227Z,101634.00
2023-03-01T22:52:07.981Z,101628.00
2023-03-01T22:54:34.515Z,101630.00
2023-03-01T22:57:01.262Z,101618.00
2023-03-01T22:59:27.942Z,101621.00
2023-03-01T23:01:54.789Z,101622.00
2023-03-01T23:04:22.969Z,101623.00
2023-03-01T23:06:55.633Z,101614.00
2023-03-01T23:09:30.847Z,101616.00
2023-03-01T23:11:59.207Z,101614.00
2023-03-01T23:14:26.904Z,101614.00
2023-03-01T23:16:54.152Z,101608.00
2023-03-01T23:19:21.079Z,101609.00
2023-03-01T23:22:02.027Z,101603.00
2023-03-01T23:24:31.657Z,101598.00
2023-03-01T23:27:00.540Z,101603.00
2023-03-01T23:29:27.239Z,101589.00
2023-03-01T23:31:57.428Z,101594.00
2023-03-01T23:34:25.487Z,101600.00
2023-03-01T23:36:53.357Z,101587.00
2023-03-01T23:39:20.227Z,101582.00
2023-03-01T23:41:47.189Z,101579.00
2023-03-01T23:44:19.475Z,101568.00
2023-03-01T23:46:47.461Z,101587.00
2023-03-01T23:49:16.377Z,101569.00
2023-03-01T23:51:47.682Z,101588.00
2023-03-01T23:54:17.692Z,101576.00
2023-03-01T23:56:44.490Z,101575.00
2023-03-01T23:59:16.499Z,101574.00
